Terminal Aerodrome Forecast
Issued by NWS

Home | Current Version | Previous Version | Text Only | Print | Product List | Glossary On
Versions: 1 2 3 4 5 6 7 8 9 10 11 12 13 14 15 16 17 18 19
000
FTUS43 KIND 260500
TAFBMG
TAF
KBMG 260520Z 2606/2706 30005KT P6SM SKC
     FM261800 25005KT P6SM SKC
     FM270100 13004KT P6SM SCT250
      AMD LTD TO CLD VIS AND WIND TIL 261300=

USA.gov is the U.S. government's official web portal to all federal, state and local government web resources and services.